createdAt,value
2022-10-07T00:01:04.383Z,5.90
2022-10-07T00:04:01.502Z,5.10
2022-10-07T00:06:59.024Z,3.03
2022-10-07T00:09:55.966Z,3.85
2022-10-07T00:12:53.030Z,4.05
2022-10-07T00:15:50.002Z,3.45
2022-10-07T00:18:50.332Z,2.42
2022-10-07T00:21:47.318Z,4.60
2022-10-07T00:24:44.465Z,3.97
2022-10-07T00:27:41.555Z,2.58
2022-10-07T00:30:38.778Z,4.25
2022-10-07T00:33:39.011Z,3.20
2022-10-07T00:36:37.539Z,4.93
2022-10-07T00:39:34.412Z,3.00
2022-10-07T00:42:33.302Z,4.20
2022-10-07T00:45:30.191Z,5.18
2022-10-07T00:48:31.303Z,4.53
2022-10-07T00:51:29.527Z,4.18
2022-10-07T00:54:26.395Z,2.35
2022-10-07T00:57:27.658Z,3.83
2022-10-07T01:00:24.618Z,2.13
2022-10-07T01:03:21.608Z,3.35
2022-10-07T01:06:18.434Z,3.47
2022-10-07T01:09:15.575Z,4.32
2022-10-07T01:12:37.366Z,4.55
2022-10-07T01:15:43.507Z,3.95
2022-10-07T01:18:55.541Z,7.05
2022-10-07T01:22:25.640Z,2.33
2022-10-07T01:25:59.930Z,3.17
2022-10-07T01:29:04.019Z,2.92
2022-10-07T01:32:34.305Z,3.05
2022-10-07T01:35:36.627Z,3.67
2022-10-07T01:38:36.036Z,4.10
2022-10-07T01:41:34.118Z,3.58
2022-10-07T01:44:31.165Z,3.05
2022-10-07T01:47:28.824Z,2.40
2022-10-07T01:50:29.567Z,4.32
2022-10-07T01:54:04.628Z,2.03
2022-10-07T01:57:47.661Z,1.75
2022-10-07T02:00:58.256Z,3.70
2022-10-07T02:04:09.290Z,4.90
2022-10-07T02:07:41.173Z,3.50
2022-10-07T02:10:48.809Z,2.72
2022-10-07T02:14:17.118Z,4.88
2022-10-07T02:17:20.424Z,3.42
2022-10-07T02:20:19.395Z,3.90
2022-10-07T02:23:20.637Z,3.88
2022-10-07T02:26:22.054Z,2.78
2022-10-07T02:29:21.792Z,3.30
2022-10-07T02:32:23.971Z,5.28
2022-10-07T02:35:40.654Z,3.30
2022-10-07T02:38:39.637Z,3.70
2022-10-07T02:41:51.904Z,2.70
2022-10-07T02:45:38.091Z,2.40
2022-10-07T02:49:01.988Z,2.97
2022-10-07T02:52:13.975Z,2.15
2022-10-07T02:55:22.663Z,2.30
2022-10-07T02:58:22.290Z,2.75
2022-10-07T03:01:26.314Z,4.35
2022-10-07T03:04:23.819Z,4.80
2022-10-07T03:07:20.784Z,4.55
2022-10-07T03:10:17.644Z,6.95
2022-10-07T03:13:15.594Z,5.93
2022-10-07T03:16:12.581Z,5.20
2022-10-07T03:19:10.797Z,5.72
2022-10-07T03:22:08.412Z,3.45
2022-10-07T03:25:05.720Z,3.22
2022-10-07T03:28:02.529Z,2.30
2022-10-07T03:31:08.225Z,2.42
2022-10-07T03:34:05.114Z,2.47
2022-10-07T03:37:01.926Z,4.07
2022-10-07T03:39:58.741Z,1.95
2022-10-07T03:42:55.534Z,2.35
2022-10-07T03:45:52.392Z,3.88
2022-10-07T03:48:49.242Z,1.92
2022-10-07T03:51:46.194Z,3.47
2022-10-07T03:54:43.554Z,3.40
2022-10-07T03:57:58.456Z,4.00
2022-10-07T04:01:08.960Z,3.08
2022-10-07T04:04:07.629Z,4.68
2022-10-07T04:07:04.413Z,1.85
2022-10-07T04:10:01.530Z,3.13
2022-10-07T04:12:58.396Z,3.20
2022-10-07T04:15:55.933Z,2.78
2022-10-07T04:18:56.001Z,2.22
2022-10-07T04:21:52.882Z,2.08
2022-10-07T04:25:09.800Z,5.80
2022-10-07T04:28:14.646Z,1.65
2022-10-07T04:31:11.668Z,3.50
2022-10-07T04:34:09.870Z,2.88
2022-10-07T04:37:06.664Z,9.52
2022-10-07T04:40:04.053Z,7.70
2022-10-07T04:43:19.263Z,4.18
2022-10-07T04:46:16.132Z,4.63
2022-10-07T04:49:13.051Z,6.75
2022-10-07T04:52:10.393Z,4.93
2022-10-07T04:55:07.718Z,4.00
2022-10-07T04:58:06.147Z,3.83
2022-10-07T05:01:09.608Z,3.00
2022-10-07T05:04:06.567Z,6.25
2022-10-07T05:07:03.924Z,5.85
2022-10-07T05:10:00.765Z,3.42
2022-10-07T05:12:57.578Z,3.15
2022-10-07T05:15:58.446Z,4.65
2022-10-07T05:18:57.137Z,5.47
2022-10-07T05:21:54.006Z,8.45
2022-10-07T05:24:50.844Z,6.18
2022-10-07T05:27:53.891Z,4.72
2022-10-07T05:31:00.292Z,5.95
2022-10-07T05:33:57.134Z,5.63
2022-10-07T05:36:53.973Z,5.55
2022-10-07T05:39:51.886Z,6.78
2022-10-07T05:42:49.767Z,5.85
2022-10-07T05:45:47.495Z,7.65
2022-10-07T05:48:52.716Z,4.38
2022-10-07T05:51:50.512Z,4.57
2022-10-07T05:54:47.383Z,5.35
2022-10-07T05:57:44.579Z,2.72
2022-10-07T06:00:55.810Z,6.45
2022-10-07T06:03:57.576Z,3.65
2022-10-07T06:06:54.506Z,4.90
2022-10-07T06:10:09.849Z,2.55
2022-10-07T06:13:13.993Z,5.20
2022-10-07T06:16:10.950Z,4.90
2022-10-07T06:19:22.332Z,3.95
2022-10-07T06:22:19.217Z,6.20
2022-10-07T06:25:16.657Z,6.60
2022-10-07T06:28:14.253Z,17.52
2022-10-07T06:31:17.640Z,4.32
2022-10-07T06:34:14.598Z,6.93
2022-10-07T06:37:11.504Z,5.20
2022-10-07T06:40:09.237Z,3.40
2022-10-07T06:43:06.354Z,4.05
2022-10-07T06:46:06.160Z,5.50
2022-10-07T06:49:03.958Z,6.03
2022-10-07T06:52:00.769Z,5.20
2022-10-07T06:54:59.020Z,6.10
2022-10-07T06:57:55.893Z,6.00
2022-10-07T07:00:54.487Z,3.58
2022-10-07T07:03:51.376Z,6.88
2022-10-07T07:06:48.260Z,4.78
2022-10-07T07:09:45.125Z,4.78
2022-10-07T07:12:41.973Z,2.83
2022-10-07T07:15:41.771Z,2.20
2022-10-07T07:18:38.588Z,2.92
2022-10-07T07:21:40.765Z,3.13
2022-10-07T07:24:38.697Z,3.80
2022-10-07T07:27:36.452Z,6.18
2022-10-07T07:30:34.808Z,7.55
2022-10-07T07:33:31.771Z,4.60
2022-10-07T07:36:30.940Z,3.45
2022-10-07T07:39:27.830Z,2.35
2022-10-07T07:42:24.742Z,2.85
2022-10-07T07:45:22.762Z,2.83
2022-10-07T07:48:19.586Z,3.50
2022-10-07T07:51:17.608Z,3.00
2022-10-07T07:54:15.372Z,1.55
2022-10-07T07:57:12.288Z,3.10
2022-10-07T08:00:11.580Z,5.90
2022-10-07T08:03:08.428Z,2.90
2022-10-07T08:06:07.392Z,7.68
2022-10-07T08:09:04.433Z,3.70
2022-10-07T08:12:02.193Z,5.00
2022-10-07T08:14:59.103Z,5.07
2022-10-07T08:17:55.903Z,2.15
2022-10-07T08:20:58.438Z,4.57
2022-10-07T08:23:57.427Z,2.30
2022-10-07T08:26:54.503Z,4.43
2022-10-07T08:29:51.316Z,3.35
2022-10-07T08:32:48.607Z,3.83
2022-10-07T08:36:00.068Z,3.92
2022-10-07T08:38:57.316Z,4.07
2022-10-07T08:42:13.455Z,4.35
2022-10-07T08:45:31.728Z,3.17
2022-10-07T08:48:36.347Z,5.50
2022-10-07T08:51:39.121Z,2.53
2022-10-07T08:54:35.989Z,2.65
2022-10-07T08:57:43.834Z,4.60
2022-10-07T09:01:01.795Z,3.20
2022-10-07T09:04:23.594Z,2.05
2022-10-07T09:07:48.092Z,2.95
2022-10-07T09:10:50.076Z,5.28
2022-10-07T09:13:56.358Z,4.10
2022-10-07T09:16:58.491Z,3.08
2022-10-07T09:20:01.194Z,1.70
2022-10-07T09:22:58.858Z,3.88
2022-10-07T09:25:56.223Z,4.00
2022-10-07T09:28:53.096Z,3.25
2022-10-07T09:31:50.117Z,5.70
2022-10-07T09:34:47.580Z,4.85
2022-10-07T09:38:02.386Z,3.85
2022-10-07T09:41:32.132Z,2.65
2022-10-07T09:44:29.391Z,3.97
2022-10-07T09:47:32.187Z,2.95
2022-10-07T09:50:38.337Z,2.28
2022-10-07T09:53:35.158Z,3.45
2022-10-07T09:56:45.253Z,3.85
2022-10-07T09:59:42.090Z,3.42
2022-10-07T10:02:48.699Z,3.47
2022-10-07T10:05:59.762Z,5.05
2022-10-07T10:08:57.574Z,3.15
2022-10-07T10:12:14.116Z,4.03
2022-10-07T10:15:45.658Z,2.38
2022-10-07T10:19:14.413Z,4.20
2022-10-07T10:22:29.518Z,3.42
2022-10-07T10:26:14.069Z,4.25
2022-10-07T10:29:32.495Z,2.38
2022-10-07T10:32:53.913Z,3.22
2022-10-07T10:36:06.547Z,4.28
2022-10-07T10:39:30.045Z,3.35
2022-10-07T10:43:05.156Z,2.95
2022-10-07T10:46:20.324Z,2.05
2022-10-07T10:49:34.984Z,3.03
2022-10-07T10:53:01.588Z,5.38
2022-10-07T10:56:27.061Z,3.20
2022-10-07T10:59:56.975Z,1.30
2022-10-07T11:03:26.572Z,3.05
2022-10-07T11:06:28.452Z,6.13
2022-10-07T11:09:43.575Z,2.55
2022-10-07T11:12:46.609Z,4.15
2022-10-07T11:15:49.458Z,2.45
2022-10-07T11:19:28.937Z,3.53
2022-10-07T11:22:39.031Z,2.63
2022-10-07T11:25:47.722Z,7.18
2022-10-07T11:28:46.397Z,2.75
2022-10-07T11:32:01.458Z,2.92
2022-10-07T11:35:23.710Z,2.72
2022-10-07T11:38:36.401Z,3.72
2022-10-07T11:41:45.432Z,9.25
2022-10-07T11:45:06.703Z,9.10
2022-10-07T11:48:12.779Z,17.50
2022-10-07T11:51:19.027Z,7.60
2022-10-07T11:54:20.311Z,8.38
2022-10-07T11:57:25.984Z,8.85
2022-10-07T12:00:37.022Z,10.13
2022-10-07T12:03:33.953Z,8.77
2022-10-07T12:06:30.983Z,3.97
2022-10-07T12:10:18.042Z,2.78
2022-10-07T12:13:14.767Z,3.60
2022-10-07T12:16:23.707Z,3.15
2022-10-07T12:19:23.906Z,2.72
2022-10-07T12:22:21.118Z,5.50
2022-10-07T12:25:32.421Z,4.40
2022-10-07T12:28:34.823Z,4.57
2022-10-07T12:31:31.709Z,7.78
2022-10-07T12:34:41.099Z,8.50
2022-10-07T12:37:40.913Z,9.85
2022-10-07T12:40:38.405Z,5.90
2022-10-07T12:43:45.126Z,2.35
2022-10-07T12:46:50.864Z,4.47
2022-10-07T12:50:07.660Z,2.35
2022-10-07T12:53:04.681Z,2.78
2022-10-07T12:56:01.708Z,2.80
2022-10-07T12:59:49.002Z,3.83
2022-10-07T13:03:23.161Z,3.78
2022-10-07T13:06:54.026Z,3.22
2022-10-07T13:13:11.901Z,3.25
2022-10-07T13:16:15.270Z,4.30
2022-10-07T13:19:50.308Z,2.45
2022-10-07T13:22:49.369Z,3.08
2022-10-07T13:25:53.193Z,2.55
2022-10-07T13:28:53.780Z,2.47
2022-10-07T13:35:36.262Z,2.28
2022-10-07T13:38:36.197Z,2.85
2022-10-07T13:41:33.109Z,3.53
2022-10-07T13:44:32.514Z,4.00
2022-10-07T13:47:36.512Z,3.85
2022-10-07T13:50:34.708Z,4.70
2022-10-07T13:53:35.758Z,2.83
2022-10-07T13:56:41.956Z,3.38
2022-10-07T13:59:38.947Z,4.32
2022-10-07T14:02:40.036Z,6.15
2022-10-07T14:05:51.850Z,2.58
2022-10-07T14:08:51.852Z,4.40
2022-10-07T14:11:56.543Z,3.67
2022-10-07T14:15:00.521Z,5.18
2022-10-07T14:18:04.795Z,3.10
2022-10-07T14:21:17.176Z,4.45
2022-10-07T14:24:20.399Z,5.45
2022-10-07T14:27:54.635Z,5.07
2022-10-07T14:31:27.943Z,5.18
2022-10-07T14:34:43.511Z,4.70
2022-10-07T14:37:40.622Z,4.60
2022-10-07T14:40:37.678Z,3.47
2022-10-07T14:43:36.635Z,8.48
2022-10-07T14:46:34.015Z,8.90
2022-10-07T14:49:31.658Z,6.70
2022-10-07T14:52:44.283Z,6.03
2022-10-07T14:55:41.593Z,4.55
2022-10-07T14:58:38.414Z,5.82
2022-10-07T15:01:35.257Z,5.38
2022-10-07T15:04:32.134Z,4.63
2022-10-07T15:07:30.957Z,3.88
2022-10-07T15:10:27.974Z,3.67
2022-10-07T15:13:24.832Z,6.35
2022-10-07T15:16:26.556Z,5.10
2022-10-07T15:19:23.542Z,4.70
2022-10-07T15:22:20.356Z,5.05
2022-10-07T15:25:18.009Z,4.85
2022-10-07T15:28:15.415Z,5.25
2022-10-07T15:31:12.323Z,7.32
2022-10-07T15:34:10.425Z,3.70
2022-10-07T15:37:09.139Z,4.45
2022-10-07T15:40:07.564Z,5.65
2022-10-07T15:43:04.393Z,4.93
2022-10-07T15:46:01.749Z,3.63
2022-10-07T15:48:59.796Z,5.65
2022-10-07T15:51:56.619Z,3.72
2022-10-07T15:54:54.205Z,3.55
2022-10-07T15:57:51.015Z,5.38
2022-10-07T16:01:00.806Z,12.73
2022-10-07T16:03:59.842Z,10.73
2022-10-07T16:06:56.760Z,13.55
2022-10-07T16:09:53.567Z,3.92
2022-10-07T16:12:50.430Z,13.38
2022-10-07T16:16:02.114Z,2.90
2022-10-07T16:19:00.471Z,23.67
2022-10-07T16:21:57.325Z,25.30
2022-10-07T16:24:55.496Z,24.80
2022-10-07T16:28:10.665Z,34.67
2022-10-07T16:31:07.521Z,20.25
2022-10-07T16:34:04.715Z,17.70
2022-10-07T16:37:01.587Z,51.47
2022-10-07T16:39:58.532Z,31.15
2022-10-07T16:42:55.772Z,29.85
2022-10-07T16:45:52.586Z,32.58
2022-10-07T16:48:50.262Z,19.27
2022-10-07T16:51:47.103Z,16.88
2022-10-07T16:54:43.951Z,5.93
2022-10-07T16:57:40.885Z,13.43
2022-10-07T17:00:37.830Z,17.10
2022-10-07T17:03:35.859Z,11.98
2022-10-07T17:06:34.215Z,41.95
2022-10-07T17:09:31.032Z,13.45
2022-10-07T17:12:27.858Z,11.20
2022-10-07T17:15:24.837Z,36.67
2022-10-07T17:18:24.462Z,10.73
2022-10-07T17:21:22.053Z,17.08
2022-10-07T17:24:21.369Z,57.65
2022-10-07T17:27:19.323Z,54.00
2022-10-07T17:30:16.620Z,16.15
2022-10-07T17:33:18.010Z,108.30
2022-10-07T17:36:14.913Z,26.80
2022-10-07T17:39:12.232Z,15.65
2022-10-07T17:42:09.043Z,17.63
2022-10-07T17:45:06.881Z,12.73
2022-10-07T17:48:04.194Z,17.73
2022-10-07T17:51:05.165Z,15.98
2022-10-07T17:54:04.141Z,11.95
2022-10-07T17:57:01.049Z,23.67
2022-10-07T17:59:58.250Z,18.85
2022-10-07T18:02:55.155Z,35.55
2022-10-07T18:05:53.630Z,20.33
2022-10-07T18:08:51.198Z,17.80
2022-10-07T18:12:06.471Z,16.33
2022-10-07T18:15:19.598Z,16.88
2022-10-07T18:18:16.419Z,17.10
2022-10-07T18:21:14.011Z,12.80
2022-10-07T18:24:10.914Z,21.88
2022-10-07T18:27:08.044Z,25.38
2022-10-07T18:30:06.811Z,41.83
2022-10-07T18:33:03.687Z,36.33
2022-10-07T18:36:03.216Z,38.08
2022-10-07T18:39:00.025Z,38.53
2022-10-07T18:41:58.261Z,25.75
2022-10-07T18:44:55.170Z,28.38
2022-10-07T18:47:51.987Z,24.92
2022-10-07T18:50:52.051Z,31.73
2022-10-07T18:53:48.905Z,20.75
2022-10-07T18:56:50.210Z,22.25
2022-10-07T18:59:47.136Z,23.15
2022-10-07T19:02:46.034Z,24.50
2022-10-07T19:05:42.873Z,30.63
2022-10-07T19:08:40.738Z,38.97
2022-10-07T19:11:37.653Z,29.38
2022-10-07T19:14:34.956Z,29.65
2022-10-07T19:17:31.810Z,24.60
2022-10-07T19:20:28.607Z,19.08
2022-10-07T19:23:28.702Z,18.48
2022-10-07T19:26:29.043Z,16.70
2022-10-07T19:29:25.851Z,20.25
2022-10-07T19:32:23.066Z,21.73
2022-10-07T19:35:19.863Z,27.08
2022-10-07T19:38:16.677Z,30.60
2022-10-07T19:41:15.990Z,31.02
2022-10-07T19:44:13.186Z,33.25
2022-10-07T19:47:10.029Z,28.92
2022-10-07T19:50:07.528Z,25.33
2022-10-07T19:53:05.415Z,29.58
2022-10-07T19:56:14.601Z,35.67
2022-10-07T19:59:13.969Z,37.40
2022-10-07T20:02:11.914Z,35.45
2022-10-07T20:05:09.634Z,35.22
2022-10-07T20:08:10.033Z,35.08
2022-10-07T20:11:08.532Z,34.60
2022-10-07T20:14:06.559Z,34.47
2022-10-07T20:17:03.553Z,32.35
2022-10-07T20:20:00.396Z,31.25
2022-10-07T20:22:57.217Z,35.53
2022-10-07T20:25:54.145Z,32.63
2022-10-07T20:28:54.604Z,30.13
2022-10-07T20:31:52.354Z,33.03
2022-10-07T20:34:50.110Z,34.42
2022-10-07T20:37:46.941Z,27.73
2022-10-07T20:41:02.197Z,22.38
2022-10-07T20:43:59.050Z,27.13
2022-10-07T20:46:57.275Z,28.25
2022-10-07T20:49:56.588Z,23.20
2022-10-07T20:52:53.462Z,22.58
2022-10-07T20:55:50.280Z,25.85
2022-10-07T20:58:47.203Z,21.48
2022-10-07T21:01:44.383Z,21.98
2022-10-07T21:04:41.983Z,25.90
2022-10-07T21:07:39.665Z,21.40
2022-10-07T21:10:36.484Z,21.20
2022-10-07T21:13:33.489Z,21.90
2022-10-07T21:16:32.434Z,25.60
2022-10-07T21:19:31.758Z,24.48
2022-10-07T21:22:28.632Z,25.92
2022-10-07T21:25:25.504Z,23.83
2022-10-07T21:28:23.686Z,25.95
2022-10-07T21:31:22.055Z,21.25
2022-10-07T21:34:19.012Z,25.98
2022-10-07T21:37:15.878Z,23.05
2022-10-07T21:40:12.682Z,18.15
2022-10-07T21:43:09.474Z,17.45
2022-10-07T21:46:06.436Z,14.98
2022-10-07T21:49:05.995Z,18.40
2022-10-07T21:52:02.814Z,18.52
2022-10-07T21:55:00.152Z,17.38
2022-10-07T21:57:56.997Z,13.73
2022-10-07T22:00:53.837Z,11.52
2022-10-07T22:03:56.498Z,14.50
2022-10-07T22:07:11.935Z,17.13
2022-10-07T22:10:09.476Z,16.08
2022-10-07T22:13:06.290Z,15.73
2022-10-07T22:16:07.052Z,14.95
2022-10-07T22:19:05.140Z,14.30
2022-10-07T22:22:01.948Z,12.38
2022-10-07T22:24:58.752Z,12.77
2022-10-07T22:27:55.572Z,11.18
2022-10-07T22:30:52.422Z,11.15
2022-10-07T22:34:00.503Z,12.20
2022-10-07T22:36:58.114Z,13.07
2022-10-07T22:39:55.025Z,7.82
2022-10-07T22:42:52.020Z,10.10
2022-10-07T22:45:59.566Z,10.68
2022-10-07T22:48:58.107Z,9.30
2022-10-07T22:51:55.525Z,9.63
2022-10-07T22:54:52.692Z,12.10
2022-10-07T22:57:51.108Z,16.13
2022-10-07T23:00:50.548Z,10.48
2022-10-07T23:03:47.562Z,9.20
2022-10-07T23:06:44.432Z,11.43
2022-10-07T23:09:41.251Z,10.95
2022-10-07T23:12:38.063Z,13.07
2022-10-07T23:15:35.340Z,13.95
2022-10-07T23:18:32.945Z,15.57
2022-10-07T23:21:34.618Z,15.52
2022-10-07T23:24:31.670Z,13.93
2022-10-07T23:27:28.459Z,16.38
2022-10-07T23:30:25.305Z,14.52
2022-10-07T23:33:22.108Z,13.15
2022-10-07T23:36:20.769Z,17.15
2022-10-07T23:39:17.978Z,12.85
2022-10-07T23:42:14.791Z,15.15
2022-10-07T23:45:11.603Z,12.75
2022-10-07T23:48:08.520Z,13.50
2022-10-07T23:51:06.871Z,13.15
2022-10-07T23:54:04.530Z,11.63
2022-10-07T23:57:01.354Z,12.10
2022-10-07T23:59:58.194Z,12.43
